AXM1517 ZSPD-WBKK
Flight info
| Callsign | AXM1517 |
|---|---|
| Flight time | 3h 55m |
| Altitude | 34100 |
| Route | HSN81D HSN W13 OKATO M503 TOLAK/N0471F341 M503 LELIM/N0472F340 V591 MAGOG DCT MEPUT W29 EATON/N0469F350 DCT SABNO A583 AKOTA/N0473F340 M754 VINIK M522 ENBAX ENBAX1A |
| Aircraft | A320/M-SDE3FGHIRWY/LB1 |
Departure
| Time | 2026-05-04 10:16 |
|---|---|
| Airport | Shanghai Pudong International Airport (ZSPD) |
Arrival
| Time | 2026-05-04 14:11 |
|---|---|
| Airport | Kota Kinabalu International Airport (WBKK) |
| Time | Latitude | Longitude | Altitude | Speed | Heading |
|---|---|---|---|---|---|
| 2026-05-04 09:52 | 31.15500 | 121.80674 | 23 ft | 0 kts | 252° |
| 2026-05-04 10:05 | 31.15500 | 121.80675 | 23 ft | 0 kts | 252° |
| 2026-05-04 10:08 | 31.15514 | 121.80724 | 23 ft | 4 kts | 252° |
| 2026-05-04 10:08 | 31.15520 | 121.80749 | 24 ft | 4 kts | 269° |
| 2026-05-04 10:08 | 31.15514 | 121.80772 | 24 ft | 4 kts | 323° |
| 2026-05-04 10:08 | 31.15492 | 121.80785 | 23 ft | 3 kts | 342° |
| 2026-05-04 10:09 | 31.15487 | 121.80787 | 26 ft | 1 kts | 342° |
| 2026-05-04 10:11 | 31.15502 | 121.80781 | 25 ft | 5 kts | 342° |
| 2026-05-04 10:11 | 31.15554 | 121.80762 | 23 ft | 10 kts | 342° |
| 2026-05-04 10:11 | 31.15612 | 121.80740 | 23 ft | 8 kts | 342° |
| 2026-05-04 10:11 | 31.15657 | 121.80723 | 23 ft | 6 kts | 342° |
| 2026-05-04 10:12 | 31.15691 | 121.80710 | 24 ft | 4 kts | 342° |
| 2026-05-04 10:12 | 31.15721 | 121.80699 | 23 ft | 6 kts | 346° |
| 2026-05-04 10:12 | 31.15758 | 121.80730 | 23 ft | 9 kts | 64° |
| 2026-05-04 10:12 | 31.15781 | 121.80810 | 22 ft | 11 kts | 71° |
| 2026-05-04 10:13 | 31.15806 | 121.80899 | 22 ft | 12 kts | 72° |
| 2026-05-04 10:13 | 31.15833 | 121.80997 | 22 ft | 13 kts | 72° |
| 2026-05-04 10:13 | 31.15863 | 121.81104 | 21 ft | 14 kts | 72° |
| 2026-05-04 10:13 | 31.15856 | 121.81196 | 21 ft | 12 kts | 145° |
| 2026-05-04 10:14 | 31.15814 | 121.81213 | 22 ft | 3 kts | 162° |
| 2026-05-04 10:14 | 31.15799 | 121.81219 | 22 ft | 2 kts | 162° |
| 2026-05-04 10:16 | 31.09985 | 121.84393 | 1669 ft | 205 kts | 147° |
| 2026-05-04 10:16 | 31.08749 | 121.85379 | 1849 ft | 225 kts | 148° |
| 2026-05-04 10:16 | 31.07374 | 121.86465 | 2090 ft | 250 kts | 148° |
| 2026-05-04 10:16 | 31.05893 | 121.87658 | 2580 ft | 265 kts | 142° |
| 2026-05-04 10:17 | 31.04503 | 121.89114 | 3270 ft | 271 kts | 138° |
| 2026-05-04 10:17 | 31.03128 | 121.90637 | 4021 ft | 275 kts | 137° |
| 2026-05-04 10:19 | 30.92960 | 122.02090 | 8936 ft | 303 kts | 137° |
| 2026-05-04 10:19 | 30.91428 | 122.03803 | 9628 ft | 306 kts | 137° |
| 2026-05-04 10:19 | 30.89880 | 122.05529 | 10254 ft | 312 kts | 137° |
| 2026-05-04 10:19 | 30.88396 | 122.07179 | 10394 ft | 333 kts | 137° |
| 2026-05-04 10:20 | 30.86666 | 122.09105 | 10521 ft | 355 kts | 137° |
| 2026-05-04 10:20 | 30.84830 | 122.11152 | 10645 ft | 375 kts | 137° |
| 2026-05-04 10:20 | 30.82899 | 122.13303 | 10788 ft | 393 kts | 137° |
| 2026-05-04 10:20 | 30.80901 | 122.15527 | 11204 ft | 400 kts | 137° |
| 2026-05-04 10:21 | 30.78877 | 122.17782 | 11742 ft | 404 kts | 137° |
| 2026-05-04 10:21 | 30.76839 | 122.20056 | 12287 ft | 408 kts | 137° |
| 2026-05-04 10:21 | 30.74786 | 122.22347 | 12841 ft | 411 kts | 137° |
| 2026-05-04 10:21 | 30.72712 | 122.24657 | 13387 ft | 414 kts | 137° |
| 2026-05-04 10:22 | 30.68509 | 122.29322 | 14386 ft | 420 kts | 138° |
| 2026-05-04 10:22 | 30.66422 | 122.31634 | 14825 ft | 423 kts | 138° |
| 2026-05-04 10:22 | 30.64255 | 122.34033 | 15299 ft | 425 kts | 139° |
| 2026-05-04 10:23 | 30.62007 | 122.36268 | 15733 ft | 425 kts | 147° |
| 2026-05-04 10:23 | 30.59493 | 122.37974 | 16167 ft | 424 kts | 159° |
| 2026-05-04 10:25 | 30.39307 | 122.38980 | 19165 ft | 423 kts | 188° |
| 2026-05-04 10:25 | 30.36357 | 122.38812 | 19526 ft | 425 kts | 188° |
| 2026-05-04 10:25 | 30.33396 | 122.38641 | 19888 ft | 427 kts | 188° |
| 2026-05-04 10:25 | 30.30423 | 122.38468 | 20243 ft | 429 kts | 189° |
| 2026-05-04 10:26 | 30.27437 | 122.38295 | 20595 ft | 430 kts | 189° |
| 2026-05-04 10:26 | 30.24439 | 122.38123 | 20944 ft | 432 kts | 189° |
| 2026-05-04 10:26 | 30.21426 | 122.37951 | 21286 ft | 434 kts | 189° |
| 2026-05-04 10:26 | 30.18406 | 122.37779 | 21605 ft | 436 kts | 189° |
| 2026-05-04 10:27 | 30.15372 | 122.37605 | 21929 ft | 437 kts | 189° |
| 2026-05-04 10:27 | 30.12326 | 122.37434 | 22256 ft | 439 kts | 189° |
| 2026-05-04 10:27 | 30.09274 | 122.37262 | 22590 ft | 440 kts | 190° |
| 2026-05-04 10:27 | 30.06256 | 122.37089 | 22917 ft | 441 kts | 190° |
| 2026-05-04 10:28 | 30.03185 | 122.36911 | 23248 ft | 442 kts | 190° |
| 2026-05-04 10:28 | 30.00109 | 122.36732 | 23578 ft | 443 kts | 190° |
| 2026-05-04 10:28 | 29.97026 | 122.36549 | 23857 ft | 444 kts | 190° |
| 2026-05-04 10:28 | 29.93936 | 122.36448 | 24106 ft | 450 kts | 185° |
| 2026-05-04 10:29 | 29.90792 | 122.36866 | 24363 ft | 460 kts | 176° |
| 2026-05-04 10:29 | 29.87645 | 122.37611 | 24599 ft | 462 kts | 176° |
| 2026-05-04 10:29 | 29.84495 | 122.38356 | 24838 ft | 463 kts | 176° |
| 2026-05-04 10:29 | 29.81333 | 122.39100 | 25065 ft | 464 kts | 176° |
| 2026-05-04 10:30 | 29.79230 | 122.39594 | 25219 ft | 465 kts | 176° |
| 2026-05-04 10:30 | 29.74975 | 122.40587 | 25507 ft | 467 kts | 176° |
| 2026-05-04 10:30 | 29.71788 | 122.41330 | 25726 ft | 468 kts | 176° |
| 2026-05-04 10:30 | 29.68589 | 122.42074 | 25936 ft | 470 kts | 177° |
| 2026-05-04 10:31 | 29.65380 | 122.42820 | 26138 ft | 471 kts | 177° |
| 2026-05-04 10:31 | 29.62167 | 122.43566 | 26407 ft | 471 kts | 177° |
| 2026-05-04 10:32 | 29.44058 | 122.47774 | 28057 ft | 467 kts | 178° |
| 2026-05-04 10:33 | 29.40873 | 122.48508 | 28348 ft | 466 kts | 178° |
| 2026-05-04 10:33 | 29.37697 | 122.49241 | 28638 ft | 466 kts | 178° |
| 2026-05-04 10:33 | 29.34524 | 122.49976 | 28938 ft | 465 kts | 178° |
| 2026-05-04 10:33 | 29.31352 | 122.50710 | 29246 ft | 464 kts | 178° |
| 2026-05-04 10:34 | 29.28187 | 122.51442 | 29534 ft | 464 kts | 178° |
| 2026-05-04 10:34 | 29.25031 | 122.52083 | 29828 ft | 456 kts | 183° |
| 2026-05-04 10:34 | 29.21907 | 122.52204 | 30119 ft | 443 kts | 192° |
| 2026-05-04 10:34 | 29.18928 | 122.51779 | 30397 ft | 432 kts | 201° |
| 2026-05-04 10:35 | 29.16083 | 122.50843 | 30664 ft | 420 kts | 209° |
| 2026-05-04 10:35 | 29.13461 | 122.49474 | 30954 ft | 411 kts | 215° |
| 2026-05-04 10:35 | 29.10897 | 122.47946 | 31257 ft | 409 kts | 215° |
| 2026-05-04 10:35 | 29.08373 | 122.46456 | 31560 ft | 407 kts | 214° |
| 2026-05-04 10:36 | 29.05862 | 122.44983 | 31859 ft | 405 kts | 214° |
| 2026-05-04 10:36 | 29.03364 | 122.43519 | 32157 ft | 402 kts | 215° |
| 2026-05-04 10:36 | 29.00911 | 122.42083 | 32450 ft | 400 kts | 215° |
| 2026-05-04 10:36 | 28.98442 | 122.40635 | 32757 ft | 398 kts | 215° |
| 2026-05-04 10:37 | 28.95985 | 122.39190 | 33044 ft | 396 kts | 215° |
| 2026-05-04 10:37 | 28.93549 | 122.37754 | 33333 ft | 394 kts | 215° |
| 2026-05-04 10:37 | 28.91117 | 122.36324 | 33621 ft | 392 kts | 215° |
| 2026-05-04 10:37 | 28.88700 | 122.34906 | 33894 ft | 390 kts | 215° |
| 2026-05-04 10:39 | 28.74284 | 122.26455 | 34264 ft | 388 kts | 215° |
| 2026-05-04 10:39 | 28.71880 | 122.25049 | 34273 ft | 388 kts | 215° |
| 2026-05-04 10:40 | 28.67071 | 122.22243 | 34270 ft | 388 kts | 215° |
| 2026-05-04 10:40 | 28.62296 | 122.19453 | 34273 ft | 388 kts | 215° |
| 2026-05-04 10:41 | 28.57488 | 122.16645 | 34267 ft | 388 kts | 215° |
| 2026-05-04 10:41 | 28.52675 | 122.13839 | 34267 ft | 389 kts | 215° |
| 2026-05-04 10:42 | 28.47844 | 122.11022 | 34263 ft | 390 kts | 215° |
| 2026-05-04 10:42 | 28.43016 | 122.08218 | 34265 ft | 390 kts | 215° |
| 2026-05-04 10:43 | 28.38180 | 122.05412 | 34265 ft | 390 kts | 214° |
| 2026-05-04 10:45 | 28.18822 | 121.94185 | 34250 ft | 391 kts | 214° |
| 2026-05-04 10:45 | 28.13965 | 121.91381 | 34249 ft | 392 kts | 214° |
| 2026-05-04 10:46 | 28.09098 | 121.88579 | 34249 ft | 393 kts | 214° |
| 2026-05-04 10:46 | 28.04225 | 121.85767 | 34247 ft | 393 kts | 214° |
| 2026-05-04 10:47 | 27.99342 | 121.82950 | 34252 ft | 394 kts | 214° |
| 2026-05-04 10:47 | 27.94537 | 121.80031 | 34256 ft | 394 kts | 216° |
| 2026-05-04 10:49 | 27.75257 | 121.68050 | 34258 ft | 396 kts | 215° |
| 2026-05-04 10:50 | 27.70417 | 121.65064 | 34257 ft | 397 kts | 215° |
| 2026-05-04 10:52 | 27.51003 | 121.53142 | 34252 ft | 399 kts | 214° |
| 2026-05-04 10:52 | 27.46113 | 121.50156 | 34251 ft | 400 kts | 214° |
| 2026-05-04 10:54 | 27.26427 | 121.38177 | 34259 ft | 403 kts | 214° |
| 2026-05-04 10:56 | 27.09194 | 121.27725 | 34177 ft | 390 kts | 218° |
| 2026-05-04 10:56 | 27.06812 | 121.26293 | 34181 ft | 388 kts | 218° |
| 2026-05-04 10:57 | 27.02063 | 121.23419 | 34183 ft | 387 kts | 218° |
| 2026-05-04 10:57 | 26.97316 | 121.20538 | 34177 ft | 388 kts | 218° |
| 2026-05-04 10:58 | 26.92563 | 121.17661 | 34183 ft | 388 kts | 218° |
| 2026-05-04 10:58 | 26.87806 | 121.14788 | 34179 ft | 389 kts | 217° |
| 2026-05-04 10:59 | 26.83067 | 121.11934 | 34167 ft | 389 kts | 217° |
| 2026-05-04 10:59 | 26.78293 | 121.09062 | 34169 ft | 389 kts | 217° |
| 2026-05-04 11:00 | 26.73524 | 121.06193 | 34161 ft | 389 kts | 217° |
| 2026-05-04 11:02 | 26.54395 | 120.94691 | 34143 ft | 391 kts | 217° |
| 2026-05-04 11:05 | 26.18176 | 120.73007 | 34136 ft | 397 kts | 217° |
| 2026-05-04 11:06 | 26.13299 | 120.70113 | 34134 ft | 397 kts | 217° |
| 2026-05-04 11:06 | 26.08418 | 120.67208 | 34136 ft | 398 kts | 217° |
| 2026-05-04 11:10 | 25.74185 | 120.46901 | 34127 ft | 400 kts | 217° |
| 2026-05-04 11:12 | 25.55423 | 120.34110 | 34114 ft | 392 kts | 224° |
| 2026-05-04 11:12 | 25.51056 | 120.30485 | 34114 ft | 393 kts | 224° |
| 2026-05-04 11:13 | 25.46680 | 120.26852 | 34120 ft | 393 kts | 224° |
| 2026-05-04 11:13 | 25.42301 | 120.23214 | 34111 ft | 394 kts | 224° |
| 2026-05-04 11:14 | 25.37908 | 120.19575 | 34107 ft | 394 kts | 224° |
| 2026-05-04 11:16 | 25.21074 | 120.05636 | 34093 ft | 395 kts | 224° |
| 2026-05-04 11:16 | 25.16670 | 120.02001 | 34090 ft | 396 kts | 223° |
| 2026-05-04 11:17 | 25.12274 | 119.98383 | 34087 ft | 397 kts | 223° |
| 2026-05-04 11:19 | 24.97423 | 119.84964 | 34087 ft | 389 kts | 234° |
| 2026-05-04 11:19 | 24.95665 | 119.82694 | 34085 ft | 390 kts | 234° |
| 2026-05-04 11:19 | 24.92127 | 119.78155 | 34087 ft | 390 kts | 234° |
| 2026-05-04 11:20 | 24.88581 | 119.73624 | 34084 ft | 391 kts | 234° |
| 2026-05-04 11:20 | 24.85026 | 119.69084 | 34106 ft | 391 kts | 234° |
| 2026-05-04 11:22 | 24.70803 | 119.50892 | 34097 ft | 393 kts | 234° |
| 2026-05-04 11:23 | 24.67244 | 119.46363 | 34102 ft | 394 kts | 234° |
| 2026-05-04 11:25 | 24.54679 | 119.30393 | 34096 ft | 395 kts | 234° |
| 2026-05-04 11:25 | 24.51080 | 119.25817 | 34098 ft | 396 kts | 234° |
| 2026-05-04 11:27 | 24.34812 | 119.05232 | 34092 ft | 398 kts | 233° |
| 2026-05-04 11:28 | 24.31182 | 119.00639 | 34093 ft | 398 kts | 234° |
| 2026-05-04 11:28 | 24.27546 | 118.96050 | 34088 ft | 399 kts | 233° |
| 2026-05-04 11:29 | 24.23902 | 118.91455 | 34092 ft | 400 kts | 233° |
| 2026-05-04 11:29 | 24.20253 | 118.86861 | 34089 ft | 400 kts | 233° |
| 2026-05-04 11:33 | 23.94551 | 118.54644 | 34093 ft | 403 kts | 233° |
| 2026-05-04 11:33 | 23.90862 | 118.50036 | 34093 ft | 403 kts | 233° |
| 2026-05-04 11:34 | 23.87170 | 118.45430 | 34093 ft | 403 kts | 233° |
| 2026-05-04 11:34 | 23.83487 | 118.40855 | 34087 ft | 404 kts | 233° |
| 2026-05-04 11:35 | 23.79748 | 118.36256 | 34088 ft | 404 kts | 233° |
| 2026-05-04 11:35 | 23.76009 | 118.31665 | 34086 ft | 405 kts | 233° |
| 2026-05-04 11:36 | 23.72274 | 118.27074 | 34088 ft | 405 kts | 233° |
| 2026-05-04 11:36 | 23.68536 | 118.22480 | 34091 ft | 405 kts | 233° |
| 2026-05-04 11:37 | 23.64795 | 118.17886 | 34089 ft | 405 kts | 233° |
| 2026-05-04 11:37 | 23.61073 | 118.13317 | 34089 ft | 405 kts | 233° |
| 2026-05-04 11:38 | 23.57324 | 118.08715 | 34090 ft | 406 kts | 233° |
| 2026-05-04 11:38 | 23.53564 | 118.04110 | 34089 ft | 406 kts | 233° |
| 2026-05-04 11:39 | 23.49795 | 117.99509 | 34086 ft | 407 kts | 232° |
| 2026-05-04 11:41 | 23.36589 | 117.83384 | 34092 ft | 407 kts | 232° |
| 2026-05-04 11:41 | 23.32811 | 117.78783 | 34088 ft | 408 kts | 232° |
| 2026-05-04 11:42 | 23.29032 | 117.74181 | 34084 ft | 408 kts | 232° |
| 2026-05-04 11:42 | 23.25248 | 117.69578 | 34084 ft | 408 kts | 232° |
| 2026-05-04 11:43 | 23.21490 | 117.65011 | 34085 ft | 408 kts | 232° |
| 2026-05-04 11:43 | 23.17707 | 117.60420 | 34081 ft | 408 kts | 232° |
| 2026-05-04 11:44 | 23.13919 | 117.55823 | 34076 ft | 408 kts | 232° |
| 2026-05-04 11:44 | 23.10127 | 117.51231 | 34077 ft | 408 kts | 232° |
| 2026-05-04 11:45 | 23.06343 | 117.46616 | 34080 ft | 409 kts | 233° |
| 2026-05-04 11:45 | 23.02600 | 117.41967 | 34075 ft | 408 kts | 233° |
| 2026-05-04 11:46 | 22.98868 | 117.37316 | 34069 ft | 409 kts | 233° |
| 2026-05-04 11:46 | 22.95093 | 117.32699 | 34063 ft | 411 kts | 227° |
| 2026-05-04 11:46 | 22.92766 | 117.30852 | 34065 ft | 421 kts | 214° |
| 2026-05-04 11:47 | 22.90072 | 117.29627 | 34062 ft | 430 kts | 204° |
| 2026-05-04 11:47 | 22.84381 | 117.27622 | 34050 ft | 429 kts | 206° |
| 2026-05-04 11:48 | 22.78752 | 117.25442 | 34048 ft | 430 kts | 206° |
| 2026-05-04 11:48 | 22.73118 | 117.23237 | 34049 ft | 431 kts | 206° |
| 2026-05-04 11:49 | 22.67459 | 117.21064 | 34052 ft | 432 kts | 206° |
| 2026-05-04 11:49 | 22.61779 | 117.18917 | 34045 ft | 432 kts | 206° |
| 2026-05-04 11:50 | 22.56093 | 117.16771 | 34045 ft | 433 kts | 206° |
| 2026-05-04 11:50 | 22.50404 | 117.14607 | 34050 ft | 433 kts | 206° |
| 2026-05-04 11:51 | 22.44713 | 117.12449 | 34046 ft | 434 kts | 206° |
| 2026-05-04 11:51 | 22.39013 | 117.10291 | 34043 ft | 434 kts | 206° |
| 2026-05-04 11:52 | 22.33307 | 117.08126 | 34044 ft | 435 kts | 206° |
| 2026-05-04 11:52 | 22.27583 | 117.05967 | 34046 ft | 436 kts | 205° |
| 2026-05-04 11:53 | 22.21851 | 117.03811 | 34044 ft | 437 kts | 205° |
| 2026-05-04 11:53 | 22.16109 | 117.01643 | 34044 ft | 437 kts | 205° |
| 2026-05-04 11:55 | 21.93143 | 116.92980 | 34038 ft | 439 kts | 205° |
| 2026-05-04 11:56 | 21.87378 | 116.90815 | 34038 ft | 439 kts | 205° |
| 2026-05-04 11:56 | 21.81600 | 116.88654 | 34036 ft | 439 kts | 205° |
| 2026-05-04 11:57 | 21.75828 | 116.86496 | 34034 ft | 439 kts | 205° |
| 2026-05-04 11:57 | 21.70053 | 116.84325 | 34037 ft | 439 kts | 205° |
| 2026-05-04 11:58 | 21.64270 | 116.82161 | 34035 ft | 440 kts | 205° |
| 2026-05-04 11:58 | 21.58529 | 116.80010 | 34033 ft | 440 kts | 205° |
| 2026-05-04 11:59 | 21.52745 | 116.77849 | 34029 ft | 440 kts | 205° |
| 2026-05-04 11:59 | 21.46956 | 116.75693 | 34022 ft | 440 kts | 205° |
| 2026-05-04 12:00 | 21.41170 | 116.73534 | 34020 ft | 440 kts | 204° |
| 2026-05-04 12:00 | 21.35383 | 116.71368 | 34019 ft | 441 kts | 204° |
| 2026-05-04 12:01 | 21.29590 | 116.69200 | 34032 ft | 441 kts | 204° |
| 2026-05-04 12:02 | 21.10247 | 116.62025 | 34748 ft | 442 kts | 204° |
| 2026-05-04 12:03 | 21.06365 | 116.60580 | 35003 ft | 441 kts | 204° |
| 2026-05-04 12:03 | 21.03467 | 116.59500 | 35176 ft | 441 kts | 204° |
| 2026-05-04 12:03 | 21.01545 | 116.58785 | 35302 ft | 441 kts | 204° |
| 2026-05-04 12:03 | 20.97663 | 116.57343 | 35508 ft | 441 kts | 204° |
| 2026-05-04 12:04 | 20.95746 | 116.56632 | 35641 ft | 441 kts | 204° |
| 2026-05-04 12:04 | 20.92841 | 116.55556 | 35800 ft | 441 kts | 204° |
| 2026-05-04 12:04 | 20.89940 | 116.54482 | 35963 ft | 441 kts | 204° |
| 2026-05-04 12:04 | 20.87038 | 116.53409 | 36120 ft | 441 kts | 204° |
| 2026-05-04 12:05 | 20.84137 | 116.52338 | 36271 ft | 441 kts | 204° |
| 2026-05-04 12:05 | 20.81235 | 116.51266 | 36412 ft | 441 kts | 204° |
| 2026-05-04 12:05 | 20.78336 | 116.50191 | 36556 ft | 441 kts | 204° |
| 2026-05-04 12:05 | 20.75428 | 116.49116 | 36704 ft | 441 kts | 204° |
| 2026-05-04 12:06 | 20.72528 | 116.48043 | 36843 ft | 441 kts | 204° |
| 2026-05-04 12:06 | 20.69631 | 116.46972 | 36991 ft | 441 kts | 204° |
| 2026-05-04 12:06 | 20.63865 | 116.44844 | 37018 ft | 441 kts | 204° |
| 2026-05-04 12:07 | 20.58064 | 116.42705 | 37017 ft | 441 kts | 204° |
| 2026-05-04 12:07 | 20.52222 | 116.40549 | 37016 ft | 441 kts | 204° |
| 2026-05-04 12:08 | 20.46411 | 116.38412 | 37014 ft | 441 kts | 204° |
| 2026-05-04 12:08 | 20.40599 | 116.36277 | 37012 ft | 442 kts | 204° |
| 2026-05-04 12:09 | 20.34815 | 116.34151 | 37018 ft | 442 kts | 204° |
| 2026-05-04 12:09 | 20.28998 | 116.32013 | 37016 ft | 442 kts | 204° |
| 2026-05-04 12:10 | 20.23174 | 116.29864 | 37011 ft | 443 kts | 204° |
| 2026-05-04 12:10 | 20.17352 | 116.27728 | 37016 ft | 443 kts | 204° |
| 2026-05-04 12:11 | 20.11512 | 116.25591 | 37014 ft | 443 kts | 204° |
| 2026-05-04 12:11 | 20.05678 | 116.23459 | 37015 ft | 444 kts | 204° |
| 2026-05-04 12:12 | 19.99837 | 116.21320 | 37021 ft | 444 kts | 204° |
| 2026-05-04 12:12 | 19.93996 | 116.19185 | 37018 ft | 444 kts | 204° |
| 2026-05-04 12:14 | 19.70582 | 116.10638 | 37011 ft | 445 kts | 203° |
| 2026-05-04 12:15 | 19.64754 | 116.08518 | 37012 ft | 445 kts | 203° |
| 2026-05-04 12:15 | 19.58882 | 116.06383 | 37013 ft | 445 kts | 203° |
| 2026-05-04 12:16 | 19.53019 | 116.04246 | 37011 ft | 445 kts | 203° |
| 2026-05-04 12:16 | 19.47162 | 116.02109 | 37014 ft | 445 kts | 203° |
| 2026-05-04 12:17 | 19.41288 | 115.99979 | 37012 ft | 445 kts | 203° |
| 2026-05-04 12:17 | 19.35461 | 115.97872 | 37012 ft | 445 kts | 203° |
| 2026-05-04 12:18 | 19.29597 | 115.95746 | 37006 ft | 445 kts | 203° |
| 2026-05-04 12:18 | 19.23736 | 115.93612 | 37004 ft | 445 kts | 203° |
| 2026-05-04 12:19 | 19.17870 | 115.91488 | 37005 ft | 445 kts | 203° |
| 2026-05-04 12:19 | 19.12003 | 115.89377 | 37002 ft | 445 kts | 203° |
| 2026-05-04 12:20 | 19.06135 | 115.87266 | 37000 ft | 445 kts | 203° |
| 2026-05-04 12:20 | 19.00023 | 115.85985 | 36999 ft | 456 kts | 184° |
| 2026-05-04 12:21 | 18.96849 | 115.86269 | 36994 ft | 462 kts | 173° |
| 2026-05-04 12:21 | 18.93737 | 115.87208 | 36986 ft | 469 kts | 161° |
| 2026-05-04 12:21 | 18.87863 | 115.90317 | 36977 ft | 473 kts | 156° |
| 2026-05-04 12:22 | 18.82019 | 115.93528 | 36980 ft | 474 kts | 156° |
| 2026-05-04 12:22 | 18.76156 | 115.96737 | 36981 ft | 474 kts | 157° |
| 2026-05-04 12:23 | 18.70335 | 115.99915 | 36987 ft | 475 kts | 156° |
| 2026-05-04 12:23 | 18.64468 | 116.03123 | 36987 ft | 475 kts | 156° |
| 2026-05-04 12:24 | 18.58600 | 116.06329 | 36989 ft | 475 kts | 156° |
| 2026-05-04 12:24 | 18.52736 | 116.09524 | 36991 ft | 475 kts | 156° |
| 2026-05-04 12:25 | 18.46875 | 116.12716 | 36991 ft | 474 kts | 156° |
| 2026-05-04 12:25 | 18.41009 | 116.15914 | 36990 ft | 475 kts | 156° |
| 2026-05-04 12:26 | 18.35143 | 116.19107 | 36992 ft | 475 kts | 156° |
| 2026-05-04 12:26 | 18.29273 | 116.22304 | 36995 ft | 475 kts | 156° |
| 2026-05-04 12:27 | 18.23397 | 116.25492 | 36997 ft | 475 kts | 156° |
| 2026-05-04 12:27 | 18.17529 | 116.28680 | 36990 ft | 475 kts | 156° |
| 2026-05-04 12:28 | 18.11662 | 116.31861 | 36991 ft | 474 kts | 156° |
| 2026-05-04 12:28 | 18.05790 | 116.35042 | 36993 ft | 474 kts | 156° |
| 2026-05-04 12:29 | 17.99927 | 116.38217 | 36994 ft | 474 kts | 156° |
| 2026-05-04 12:29 | 17.94099 | 116.41377 | 36993 ft | 474 kts | 156° |
| 2026-05-04 12:30 | 17.88241 | 116.44553 | 36992 ft | 473 kts | 156° |
| 2026-05-04 12:30 | 17.82388 | 116.47712 | 36989 ft | 473 kts | 156° |
| 2026-05-04 12:31 | 17.76532 | 116.50868 | 36989 ft | 473 kts | 156° |
| 2026-05-04 12:31 | 17.70680 | 116.54024 | 36989 ft | 472 kts | 156° |
| 2026-05-04 12:32 | 17.61911 | 116.58752 | 36988 ft | 472 kts | 156° |
| 2026-05-04 12:33 | 17.56066 | 116.61900 | 36987 ft | 472 kts | 156° |
| 2026-05-04 12:33 | 17.50262 | 116.65023 | 36986 ft | 472 kts | 156° |
| 2026-05-04 12:34 | 17.44419 | 116.68164 | 36984 ft | 472 kts | 156° |
| 2026-05-04 12:34 | 17.38586 | 116.71306 | 36979 ft | 471 kts | 156° |
| 2026-05-04 12:35 | 17.32749 | 116.74439 | 36980 ft | 471 kts | 156° |
| 2026-05-04 12:35 | 17.26912 | 116.77569 | 36981 ft | 471 kts | 156° |
| 2026-05-04 12:36 | 17.21085 | 116.80700 | 36975 ft | 471 kts | 156° |
| 2026-05-04 12:36 | 17.15256 | 116.83823 | 36976 ft | 470 kts | 156° |
| 2026-05-04 12:37 | 17.09424 | 116.86944 | 36978 ft | 470 kts | 156° |
| 2026-05-04 12:37 | 17.03602 | 116.90062 | 36978 ft | 470 kts | 156° |
| 2026-05-04 12:38 | 16.97791 | 116.93174 | 36976 ft | 469 kts | 156° |
| 2026-05-04 12:38 | 16.91983 | 116.96284 | 36977 ft | 469 kts | 156° |
| 2026-05-04 12:39 | 16.86168 | 116.99390 | 36979 ft | 469 kts | 156° |
| 2026-05-04 12:39 | 16.80360 | 117.02484 | 36974 ft | 468 kts | 156° |
| 2026-05-04 12:40 | 16.74591 | 117.05552 | 36973 ft | 468 kts | 156° |
| 2026-05-04 12:40 | 16.68785 | 117.08646 | 36971 ft | 468 kts | 156° |
| 2026-05-04 12:41 | 16.62946 | 117.11759 | 36974 ft | 468 kts | 156° |
| 2026-05-04 12:41 | 16.57184 | 117.14828 | 36975 ft | 468 kts | 156° |
| 2026-05-04 12:42 | 16.51367 | 117.17910 | 36971 ft | 468 kts | 157° |
| 2026-05-04 12:42 | 16.45225 | 117.19873 | 36969 ft | 459 kts | 176° |
| 2026-05-04 12:43 | 16.38909 | 117.19738 | 36964 ft | 453 kts | 190° |
| 2026-05-04 12:43 | 16.32648 | 117.18915 | 36961 ft | 453 kts | 190° |
| 2026-05-04 12:44 | 16.26389 | 117.18111 | 36959 ft | 454 kts | 189° |
| 2026-05-04 12:44 | 16.20121 | 117.17309 | 36952 ft | 454 kts | 189° |
| 2026-05-04 12:45 | 16.13851 | 117.16502 | 36954 ft | 454 kts | 189° |
| 2026-05-04 12:45 | 16.07573 | 117.15687 | 36958 ft | 454 kts | 189° |
| 2026-05-04 12:46 | 16.01294 | 117.14874 | 36964 ft | 455 kts | 189° |
| 2026-05-04 12:46 | 15.95051 | 117.14072 | 36960 ft | 455 kts | 189° |
| 2026-05-04 12:47 | 15.88764 | 117.13267 | 36969 ft | 455 kts | 189° |
| 2026-05-04 12:47 | 15.82483 | 117.12468 | 36968 ft | 454 kts | 189° |
| 2026-05-04 12:48 | 15.76206 | 117.11670 | 36965 ft | 454 kts | 189° |
| 2026-05-04 12:48 | 15.69932 | 117.10862 | 36964 ft | 454 kts | 189° |
| 2026-05-04 12:49 | 15.63657 | 117.10062 | 36966 ft | 454 kts | 189° |
| 2026-05-04 12:49 | 15.57387 | 117.09250 | 36958 ft | 454 kts | 189° |
| 2026-05-04 12:50 | 15.51110 | 117.08436 | 36963 ft | 454 kts | 189° |
| 2026-05-04 12:50 | 15.45903 | 117.07768 | 36964 ft | 454 kts | 189° |
| 2026-05-04 12:51 | 15.39632 | 117.06972 | 36957 ft | 454 kts | 189° |
| 2026-05-04 12:51 | 15.33357 | 117.06179 | 36959 ft | 454 kts | 189° |
| 2026-05-04 12:52 | 15.27075 | 117.05384 | 36952 ft | 455 kts | 189° |
| 2026-05-04 12:52 | 15.20798 | 117.04578 | 36954 ft | 455 kts | 189° |
| 2026-05-04 12:53 | 15.14508 | 117.03762 | 36952 ft | 455 kts | 189° |
| 2026-05-04 12:53 | 15.08218 | 117.02966 | 36957 ft | 455 kts | 189° |
| 2026-05-04 12:54 | 15.01918 | 117.02161 | 36949 ft | 456 kts | 189° |
| 2026-05-04 12:54 | 14.95666 | 117.01369 | 36953 ft | 456 kts | 189° |
| 2026-05-04 12:55 | 14.89367 | 117.00570 | 36953 ft | 456 kts | 189° |
| 2026-05-04 12:55 | 14.83068 | 116.99765 | 36944 ft | 456 kts | 189° |
| 2026-05-04 12:56 | 14.76777 | 116.98962 | 36940 ft | 456 kts | 188° |
| 2026-05-04 12:56 | 14.70485 | 116.98165 | 36936 ft | 456 kts | 188° |
| 2026-05-04 12:57 | 14.64186 | 116.97369 | 36938 ft | 456 kts | 188° |
| 2026-05-04 12:57 | 14.57880 | 116.96570 | 36938 ft | 456 kts | 188° |
| 2026-05-04 12:58 | 14.51577 | 116.95767 | 36942 ft | 457 kts | 188° |
| 2026-05-04 12:58 | 14.45262 | 116.94962 | 36962 ft | 457 kts | 188° |
| 2026-05-04 12:59 | 14.38947 | 116.94163 | 36956 ft | 457 kts | 188° |
| 2026-05-04 12:59 | 14.32629 | 116.93372 | 36960 ft | 457 kts | 188° |
| 2026-05-04 13:00 | 14.26355 | 116.92578 | 36954 ft | 457 kts | 188° |
| 2026-05-04 13:00 | 14.20042 | 116.91779 | 36955 ft | 457 kts | 188° |
| 2026-05-04 13:01 | 14.13733 | 116.90983 | 36956 ft | 457 kts | 188° |
| 2026-05-04 13:01 | 14.07429 | 116.90184 | 36957 ft | 457 kts | 188° |
| 2026-05-04 13:02 | 14.01121 | 116.89386 | 36956 ft | 456 kts | 188° |
| 2026-05-04 13:02 | 13.94821 | 116.88590 | 36958 ft | 456 kts | 188° |
| 2026-05-04 13:03 | 13.88508 | 116.87789 | 36961 ft | 457 kts | 188° |
| 2026-05-04 13:03 | 13.82201 | 116.86996 | 36960 ft | 457 kts | 188° |
| 2026-05-04 13:04 | 13.75890 | 116.86205 | 36954 ft | 456 kts | 188° |
| 2026-05-04 13:04 | 13.69588 | 116.85413 | 36959 ft | 456 kts | 188° |
| 2026-05-04 13:05 | 13.63327 | 116.84630 | 36956 ft | 456 kts | 188° |
| 2026-05-04 13:05 | 13.57024 | 116.83834 | 36954 ft | 456 kts | 188° |
| 2026-05-04 13:06 | 13.50724 | 116.83041 | 36955 ft | 456 kts | 188° |
| 2026-05-04 13:06 | 13.44423 | 116.82257 | 36946 ft | 456 kts | 188° |
| 2026-05-04 13:07 | 13.38116 | 116.81461 | 36943 ft | 457 kts | 188° |
| 2026-05-04 13:07 | 13.31800 | 116.80661 | 36943 ft | 458 kts | 188° |
| 2026-05-04 13:08 | 13.25472 | 116.79865 | 36948 ft | 458 kts | 188° |
| 2026-05-04 13:08 | 13.19140 | 116.79074 | 36946 ft | 458 kts | 188° |
| 2026-05-04 13:09 | 13.12809 | 116.78279 | 36943 ft | 458 kts | 188° |
| 2026-05-04 13:09 | 13.06483 | 116.77489 | 36944 ft | 458 kts | 188° |
| 2026-05-04 13:10 | 13.00151 | 116.76701 | 36939 ft | 458 kts | 188° |
| 2026-05-04 13:10 | 12.93822 | 116.75907 | 36938 ft | 458 kts | 188° |
| 2026-05-04 13:11 | 12.87527 | 116.75119 | 36936 ft | 458 kts | 188° |
| 2026-05-04 13:11 | 12.81194 | 116.74326 | 36937 ft | 459 kts | 188° |
| 2026-05-04 13:12 | 12.74854 | 116.73539 | 36935 ft | 459 kts | 188° |
| 2026-05-04 13:12 | 12.68500 | 116.72749 | 36937 ft | 460 kts | 188° |
| 2026-05-04 13:13 | 12.62151 | 116.71959 | 36939 ft | 460 kts | 188° |
| 2026-05-04 13:13 | 12.55795 | 116.71160 | 36940 ft | 460 kts | 188° |
| 2026-05-04 13:14 | 12.49437 | 116.70360 | 36936 ft | 461 kts | 188° |
| 2026-05-04 13:14 | 12.43066 | 116.69572 | 36939 ft | 461 kts | 188° |
| 2026-05-04 13:15 | 12.36695 | 116.68785 | 36939 ft | 461 kts | 188° |
| 2026-05-04 13:15 | 12.30313 | 116.67989 | 36944 ft | 461 kts | 188° |
| 2026-05-04 13:16 | 12.23945 | 116.67194 | 36940 ft | 461 kts | 188° |
| 2026-05-04 13:16 | 12.17611 | 116.66406 | 36941 ft | 461 kts | 188° |
| 2026-05-04 13:17 | 12.11235 | 116.65614 | 36941 ft | 461 kts | 188° |
| 2026-05-04 13:17 | 12.04865 | 116.64820 | 36942 ft | 461 kts | 188° |
| 2026-05-04 13:18 | 11.98483 | 116.64029 | 36940 ft | 461 kts | 188° |
| 2026-05-04 13:18 | 11.92112 | 116.63241 | 36943 ft | 462 kts | 188° |
| 2026-05-04 13:19 | 11.85735 | 116.62443 | 36942 ft | 461 kts | 188° |
| 2026-05-04 13:19 | 11.79364 | 116.61653 | 36944 ft | 461 kts | 187° |
| 2026-05-04 13:20 | 11.73017 | 116.60874 | 36942 ft | 461 kts | 187° |
| 2026-05-04 13:20 | 11.66642 | 116.60088 | 36941 ft | 461 kts | 187° |
| 2026-05-04 13:21 | 11.60268 | 116.59297 | 36944 ft | 461 kts | 187° |
| 2026-05-04 13:21 | 11.53897 | 116.58500 | 36944 ft | 461 kts | 187° |
| 2026-05-04 13:22 | 11.47524 | 116.57707 | 36948 ft | 461 kts | 187° |
| 2026-05-04 13:22 | 11.41148 | 116.56924 | 36947 ft | 461 kts | 187° |
| 2026-05-04 13:23 | 11.34773 | 116.56140 | 36946 ft | 461 kts | 187° |
| 2026-05-04 13:23 | 11.28397 | 116.55357 | 36943 ft | 461 kts | 187° |
| 2026-05-04 13:24 | 11.22030 | 116.54574 | 36943 ft | 461 kts | 187° |
| 2026-05-04 13:24 | 11.15657 | 116.53782 | 36943 ft | 461 kts | 187° |
| 2026-05-04 13:25 | 11.06094 | 116.52595 | 36945 ft | 461 kts | 187° |
| 2026-05-04 13:25 | 10.99722 | 116.51822 | 36941 ft | 461 kts | 187° |
| 2026-05-04 13:26 | 10.93351 | 116.51047 | 36939 ft | 461 kts | 187° |
| 2026-05-04 13:26 | 10.87022 | 116.50261 | 36940 ft | 461 kts | 187° |
| 2026-05-04 13:27 | 10.80659 | 116.49475 | 36937 ft | 461 kts | 187° |
| 2026-05-04 13:27 | 10.74294 | 116.48692 | 36939 ft | 461 kts | 187° |
| 2026-05-04 13:28 | 10.67927 | 116.47902 | 36939 ft | 461 kts | 187° |
| 2026-05-04 13:28 | 10.61565 | 116.47118 | 36937 ft | 461 kts | 186° |
| 2026-05-04 13:29 | 10.55200 | 116.46342 | 36938 ft | 461 kts | 186° |
| 2026-05-04 13:29 | 10.48826 | 116.45561 | 36935 ft | 461 kts | 187° |
| 2026-05-04 13:30 | 10.42465 | 116.44775 | 36935 ft | 461 kts | 187° |
| 2026-05-04 13:30 | 10.36135 | 116.43993 | 36936 ft | 460 kts | 186° |
| 2026-05-04 13:31 | 10.29735 | 116.43205 | 36934 ft | 460 kts | 186° |
| 2026-05-04 13:31 | 10.23421 | 116.42431 | 36932 ft | 460 kts | 186° |
| 2026-05-04 13:32 | 10.17067 | 116.41655 | 36932 ft | 460 kts | 186° |
| 2026-05-04 13:32 | 10.10714 | 116.40878 | 36933 ft | 460 kts | 186° |
| 2026-05-04 13:33 | 10.04353 | 116.40106 | 36935 ft | 460 kts | 186° |
| 2026-05-04 13:33 | 9.98001 | 116.39325 | 36937 ft | 460 kts | 186° |
| 2026-05-04 13:34 | 9.91650 | 116.38549 | 36939 ft | 459 kts | 186° |
| 2026-05-04 13:34 | 9.85306 | 116.37777 | 36943 ft | 459 kts | 186° |
| 2026-05-04 13:35 | 9.75782 | 116.36609 | 36942 ft | 459 kts | 186° |
| 2026-05-04 13:36 | 9.69446 | 116.35825 | 36943 ft | 458 kts | 186° |
| 2026-05-04 13:36 | 9.63159 | 116.35051 | 36941 ft | 458 kts | 186° |
| 2026-05-04 13:37 | 9.56840 | 116.34287 | 36943 ft | 457 kts | 186° |
| 2026-05-04 13:37 | 9.50520 | 116.33526 | 36944 ft | 457 kts | 186° |
| 2026-05-04 13:38 | 9.44207 | 116.32752 | 36941 ft | 456 kts | 186° |
| 2026-05-04 13:38 | 9.38971 | 116.32111 | 36939 ft | 456 kts | 186° |
| 2026-05-04 13:39 | 9.31609 | 116.31215 | 36936 ft | 456 kts | 186° |
| 2026-05-04 13:39 | 9.26380 | 116.30577 | 36938 ft | 456 kts | 186° |
| 2026-05-04 13:40 | 9.20084 | 116.29805 | 36934 ft | 456 kts | 186° |
| 2026-05-04 13:40 | 9.13785 | 116.29032 | 36935 ft | 456 kts | 186° |
| 2026-05-04 13:41 | 9.07491 | 116.28267 | 36933 ft | 456 kts | 186° |
| 2026-05-04 13:41 | 9.01182 | 116.27503 | 36935 ft | 456 kts | 186° |
| 2026-05-04 13:42 | 8.91726 | 116.26346 | 36931 ft | 456 kts | 186° |
| 2026-05-04 13:42 | 8.85422 | 116.25583 | 36929 ft | 457 kts | 186° |
| 2026-05-04 13:43 | 8.79110 | 116.24814 | 36925 ft | 457 kts | 186° |
| 2026-05-04 13:43 | 8.72793 | 116.24045 | 36926 ft | 457 kts | 186° |
| 2026-05-04 13:44 | 8.66470 | 116.23278 | 36924 ft | 458 kts | 186° |
| 2026-05-04 13:44 | 8.60126 | 116.22589 | 36923 ft | 458 kts | 184° |
| 2026-05-04 13:45 | 8.53805 | 116.22129 | 36923 ft | 458 kts | 182° |
| 2026-05-04 13:45 | 8.47440 | 116.21713 | 36920 ft | 459 kts | 183° |
| 2026-05-04 13:46 | 8.41061 | 116.21249 | 36921 ft | 460 kts | 183° |
| 2026-05-04 13:46 | 8.34679 | 116.20752 | 36922 ft | 460 kts | 184° |
| 2026-05-04 13:47 | 8.28288 | 116.20252 | 36923 ft | 461 kts | 184° |
| 2026-05-04 13:47 | 8.21895 | 116.19760 | 36925 ft | 461 kts | 183° |
| 2026-05-04 13:48 | 8.15495 | 116.19276 | 36927 ft | 461 kts | 183° |
| 2026-05-04 13:48 | 8.09095 | 116.18822 | 36929 ft | 461 kts | 183° |
| 2026-05-04 13:49 | 8.02693 | 116.18378 | 36925 ft | 461 kts | 183° |
| 2026-05-04 13:49 | 7.96290 | 116.17935 | 36929 ft | 461 kts | 183° |
| 2026-05-04 13:50 | 7.89925 | 116.17486 | 36933 ft | 461 kts | 183° |
| 2026-05-04 13:50 | 7.83529 | 116.17022 | 36937 ft | 461 kts | 183° |
| 2026-05-04 13:51 | 7.77124 | 116.16560 | 36941 ft | 461 kts | 183° |
| 2026-05-04 13:51 | 7.70720 | 116.16112 | 36944 ft | 461 kts | 183° |
| 2026-05-04 13:52 | 7.61133 | 116.15429 | 36944 ft | 460 kts | 184° |
| 2026-05-04 13:53 | 7.54761 | 116.14972 | 36943 ft | 459 kts | 184° |
| 2026-05-04 13:53 | 7.48401 | 116.14529 | 36941 ft | 458 kts | 184° |
| 2026-05-04 13:54 | 7.42045 | 116.14082 | 35758 ft | 459 kts | 184° |
| 2026-05-04 13:54 | 7.38835 | 116.13855 | 34419 ft | 465 kts | 184° |
| 2026-05-04 13:54 | 7.32430 | 116.13405 | 32458 ft | 456 kts | 184° |
| 2026-05-04 13:55 | 7.29292 | 116.13185 | 31506 ft | 450 kts | 183° |
| 2026-05-04 13:55 | 7.23101 | 116.12744 | 29423 ft | 443 kts | 183° |
| 2026-05-04 13:55 | 7.20027 | 116.12525 | 28359 ft | 445 kts | 183° |
| 2026-05-04 13:56 | 7.16924 | 116.12307 | 27289 ft | 451 kts | 183° |
| 2026-05-04 13:56 | 7.13758 | 116.12083 | 26129 ft | 460 kts | 183° |
| 2026-05-04 13:56 | 7.07332 | 116.11623 | 23912 ft | 468 kts | 182° |
| 2026-05-04 13:57 | 7.04111 | 116.11392 | 22719 ft | 460 kts | 182° |
| 2026-05-04 13:57 | 7.00952 | 116.11166 | 21799 ft | 452 kts | 182° |
| 2026-05-04 13:58 | 6.91527 | 116.10509 | 19388 ft | 452 kts | 182° |
| 2026-05-04 13:58 | 6.85253 | 116.10070 | 17742 ft | 449 kts | 182° |
| 2026-05-04 13:58 | 6.82161 | 116.09850 | 16985 ft | 440 kts | 182° |
| 2026-05-04 13:59 | 6.79134 | 116.09635 | 16264 ft | 431 kts | 182° |
| 2026-05-04 13:59 | 6.76170 | 116.09425 | 15562 ft | 423 kts | 182° |
| 2026-05-04 13:59 | 6.70383 | 116.09616 | 13952 ft | 417 kts | 171° |
| 2026-05-04 14:00 | 6.67554 | 116.09992 | 13333 ft | 398 kts | 171° |
| 2026-05-04 14:00 | 6.62466 | 116.10680 | 13047 ft | 342 kts | 170° |
| 2026-05-04 14:00 | 6.60182 | 116.10991 | 12853 ft | 322 kts | 170° |
| 2026-05-04 14:01 | 6.57997 | 116.11290 | 12365 ft | 314 kts | 170° |
| 2026-05-04 14:01 | 6.55873 | 116.11582 | 11788 ft | 310 kts | 170° |
| 2026-05-04 14:01 | 6.51638 | 116.12164 | 10596 ft | 305 kts | 170° |
| 2026-05-04 14:02 | 6.49547 | 116.12451 | 10218 ft | 301 kts | 170° |
| 2026-05-04 14:02 | 6.47476 | 116.12733 | 10120 ft | 300 kts | 171° |
| 2026-05-04 14:02 | 6.45392 | 116.12853 | 10047 ft | 300 kts | 176° |
| 2026-05-04 14:02 | 6.43286 | 116.12903 | 9640 ft | 306 kts | 177° |
| 2026-05-04 14:03 | 6.41168 | 116.12927 | 9321 ft | 302 kts | 178° |
| 2026-05-04 14:03 | 6.39084 | 116.12941 | 8714 ft | 298 kts | 178° |
| 2026-05-04 14:03 | 6.37010 | 116.12957 | 8078 ft | 296 kts | 178° |
| 2026-05-04 14:03 | 6.34956 | 116.12973 | 7427 ft | 295 kts | 178° |
| 2026-05-04 14:04 | 6.30905 | 116.13021 | 6340 ft | 287 kts | 178° |
| 2026-05-04 14:04 | 6.28916 | 116.13049 | 5792 ft | 285 kts | 178° |
| 2026-05-04 14:04 | 6.26941 | 116.13075 | 5286 ft | 284 kts | 178° |
| 2026-05-04 14:05 | 6.22975 | 116.13126 | 4460 ft | 281 kts | 178° |
| 2026-05-04 14:05 | 6.21073 | 116.13150 | 4395 ft | 266 kts | 178° |
| 2026-05-04 14:05 | 6.19264 | 116.13174 | 4278 ft | 255 kts | 178° |
| 2026-05-04 14:06 | 6.17552 | 116.13197 | 4172 ft | 245 kts | 178° |
| 2026-05-04 14:06 | 6.15863 | 116.13222 | 4066 ft | 242 kts | 178° |
| 2026-05-04 14:06 | 6.14163 | 116.13246 | 3954 ft | 241 kts | 178° |
| 2026-05-04 14:06 | 6.12489 | 116.13039 | 3625 ft | 247 kts | 199° |
| 2026-05-04 14:07 | 6.10926 | 116.12393 | 3309 ft | 247 kts | 202° |
| 2026-05-04 14:07 | 6.09347 | 116.11722 | 2987 ft | 246 kts | 202° |
| 2026-05-04 14:07 | 6.07781 | 116.11059 | 2659 ft | 239 kts | 202° |
| 2026-05-04 14:07 | 6.06285 | 116.10427 | 2363 ft | 227 kts | 202° |
| 2026-05-04 14:08 | 6.04865 | 116.09827 | 2093 ft | 214 kts | 202° |
| 2026-05-04 14:08 | 6.03541 | 116.09268 | 1813 ft | 199 kts | 202° |
| 2026-05-04 14:08 | 6.02308 | 116.08747 | 1563 ft | 186 kts | 201° |
| 2026-05-04 14:08 | 6.01179 | 116.08270 | 1339 ft | 168 kts | 202° |
| 2026-05-04 14:09 | 5.99314 | 116.07483 | 981 ft | 152 kts | 202° |
| 2026-05-04 14:09 | 5.98349 | 116.07075 | 799 ft | 149 kts | 202° |
| 2026-05-04 14:10 | 5.96463 | 116.06280 | 400 ft | 145 kts | 201° |
| 2026-05-04 14:10 | 5.95536 | 116.05885 | 247 ft | 144 kts | 201° |
| 2026-05-04 14:10 | 5.94618 | 116.05496 | 41 ft | 141 kts | 201° |
| 2026-05-04 14:10 | 5.93829 | 116.05162 | 29 ft | 91 kts | 203° |
| 2026-05-04 14:11 | 5.93524 | 116.05031 | 29 ft | 11 kts | 203° |
| 2026-05-04 14:11 | 5.93308 | 116.04939 | 29 ft | 22 kts | 202° |
| 2026-05-04 14:11 | 5.93163 | 116.04879 | 29 ft | 23 kts | 202° |
| 2026-05-04 14:12 | 5.93018 | 116.04819 | 29 ft | 21 kts | 202° |
| 2026-05-04 14:12 | 5.92903 | 116.04773 | 29 ft | 17 kts | 199° |
| 2026-05-04 14:12 | 5.92684 | 116.04758 | 29 ft | 11 kts | 175° |
| 2026-05-04 14:13 | 5.92610 | 116.04765 | 29 ft | 10 kts | 174° |
| 2026-05-04 14:13 | 5.92546 | 116.04773 | 29 ft | 9 kts | 173° |
| 2026-05-04 14:13 | 5.92483 | 116.04777 | 29 ft | 9 kts | 188° |
| 2026-05-04 14:13 | 5.92431 | 116.04765 | 29 ft | 7 kts | 172° |
| 2026-05-04 14:14 | 5.92401 | 116.04808 | 29 ft | 8 kts | 107° |
| 2026-05-04 14:14 | 5.92379 | 116.04889 | 29 ft | 5 kts | 91° |
| 2026-05-04 14:14 | 5.92388 | 116.04914 | 29 ft | 3 kts | 60° |
| 2026-05-04 14:15 | 5.92401 | 116.04941 | 29 ft | 2 kts | 69° |
| 2026-05-04 14:15 | 5.92406 | 116.04955 | 29 ft | 0 kts | 69° |